createdAt,value
2017-09-30T00:00:17.948Z,6.00
2017-09-30T00:02:20.380Z,5.83
2017-09-30T00:04:22.936Z,5.87
2017-09-30T00:06:25.373Z,6.60
2017-09-30T00:08:27.829Z,5.80
2017-09-30T00:10:30.433Z,6.67
2017-09-30T00:12:32.875Z,6.40
2017-09-30T00:14:35.315Z,5.93
2017-09-30T00:16:37.772Z,5.93
2017-09-30T00:18:40.215Z,6.30
2017-09-30T00:20:42.649Z,5.90
2017-09-30T00:22:45.109Z,6.10
2017-09-30T00:24:47.869Z,6.60
2017-09-30T00:26:50.312Z,5.70
2017-09-30T00:28:52.870Z,5.77
2017-09-30T00:30:55.341Z,5.80
2017-09-30T00:32:57.782Z,7.00
2017-09-30T00:35:00.252Z,6.33
2017-09-30T00:37:02.688Z,5.93
2017-09-30T00:39:05.127Z,6.50
2017-09-30T00:41:07.589Z,5.60
2017-09-30T00:43:10.070Z,6.27
2017-09-30T00:45:12.507Z,6.07
2017-09-30T00:47:15.004Z,6.00
2017-09-30T00:49:17.475Z,6.50
2017-09-30T00:51:19.936Z,6.70
2017-09-30T00:53:22.396Z,7.20
2017-09-30T00:55:24.827Z,7.00
2017-09-30T00:57:27.271Z,6.60
2017-09-30T00:59:29.824Z,7.10
2017-09-30T01:01:32.296Z,7.47
2017-09-30T01:03:34.773Z,6.97
2017-09-30T01:05:37.345Z,8.80
2017-09-30T01:07:39.804Z,9.43
2017-09-30T01:09:42.252Z,7.87
2017-09-30T01:11:44.958Z,7.63
2017-09-30T01:13:47.397Z,8.87
2017-09-30T01:15:49.845Z,8.67
2017-09-30T01:17:52.300Z,6.53
2017-09-30T01:19:54.749Z,6.90
2017-09-30T01:21:57.185Z,7.00
2017-09-30T01:23:59.674Z,5.93
2017-09-30T01:26:02.117Z,5.90
2017-09-30T01:28:04.552Z,6.00
2017-09-30T01:30:07.100Z,6.40
2017-09-30T01:32:09.540Z,5.73
2017-09-30T01:34:11.972Z,5.77
2017-09-30T01:36:14.436Z,5.80
2017-09-30T01:38:16.873Z,5.30
2017-09-30T01:40:20.365Z,5.70
2017-09-30T01:42:22.842Z,5.77
2017-09-30T01:44:25.399Z,5.00
2017-09-30T01:46:27.868Z,5.30
2017-09-30T01:48:30.334Z,5.73
2017-09-30T01:50:32.777Z,5.83
2017-09-30T01:52:35.216Z,5.10
2017-09-30T01:54:37.679Z,5.40
2017-09-30T01:56:40.116Z,4.60
2017-09-30T01:58:42.543Z,4.93
2017-09-30T02:00:45.057Z,4.90
2017-09-30T02:02:47.507Z,4.87
2017-09-30T02:04:49.956Z,5.47
2017-09-30T02:06:52.575Z,4.90
2017-09-30T02:08:55.025Z,4.83
2017-09-30T02:10:57.464Z,4.73
2017-09-30T02:13:00.168Z,4.40
2017-09-30T02:15:02.613Z,4.30
2017-09-30T02:17:05.047Z,4.77
2017-09-30T02:19:07.567Z,4.20
2017-09-30T02:21:10.013Z,4.30
2017-09-30T02:23:12.532Z,4.57
2017-09-30T02:25:14.980Z,4.90
2017-09-30T02:27:17.416Z,4.33
2017-09-30T02:29:19.847Z,5.30
2017-09-30T02:31:22.304Z,4.17
2017-09-30T02:33:24.784Z,4.83
2017-09-30T02:35:27.224Z,4.60
2017-09-30T02:37:29.691Z,4.40
2017-09-30T02:39:32.396Z,4.33
2017-09-30T02:41:34.830Z,4.83
2017-09-30T02:43:37.331Z,4.13
2017-09-30T02:45:39.765Z,4.60
2017-09-30T02:47:42.188Z,4.30
2017-09-30T02:49:44.656Z,4.37
2017-09-30T02:51:47.093Z,4.53
2017-09-30T02:53:49.529Z,4.40
2017-09-30T02:55:52.003Z,4.00
2017-09-30T02:57:54.445Z,4.00
2017-09-30T02:59:56.891Z,4.13
2017-09-30T03:01:59.426Z,3.77
2017-09-30T03:04:01.860Z,4.57
2017-09-30T03:06:04.293Z,4.20
2017-09-30T03:08:06.751Z,3.80
2017-09-30T03:10:09.184Z,4.20
2017-09-30T03:12:11.622Z,3.90
2017-09-30T03:14:14.537Z,4.67
2017-09-30T03:16:16.979Z,4.27
2017-09-30T03:18:19.430Z,4.03
2017-09-30T03:20:21.898Z,3.70
2017-09-30T03:22:24.340Z,3.70
2017-09-30T03:24:26.772Z,3.80
2017-09-30T03:26:29.237Z,3.93
2017-09-30T03:28:31.685Z,4.53
2017-09-30T03:30:34.117Z,3.67
2017-09-30T03:32:36.585Z,3.53
2017-09-30T03:34:39.040Z,3.27
2017-09-30T03:36:41.572Z,3.80
2017-09-30T03:38:44.080Z,3.63
2017-09-30T03:40:46.520Z,3.10
2017-09-30T03:42:48.953Z,3.80
2017-09-30T03:44:51.412Z,3.40
2017-09-30T03:46:53.850Z,3.50
2017-09-30T03:48:56.372Z,3.60
2017-09-30T03:50:58.827Z,3.40
2017-09-30T03:53:01.329Z,3.57
2017-09-30T03:55:03.795Z,3.30
2017-09-30T03:57:06.257Z,3.17
2017-09-30T03:59:08.694Z,3.37
2017-09-30T04:01:11.146Z,3.50
2017-09-30T04:03:13.640Z,3.10
2017-09-30T04:05:16.084Z,3.47
2017-09-30T04:07:18.511Z,3.60
2017-09-30T04:09:21.089Z,3.30
2017-09-30T04:11:23.544Z,3.00
2017-09-30T04:13:25.981Z,3.13
2017-09-30T04:15:28.672Z,2.93
2017-09-30T04:17:31.120Z,3.00
2017-09-30T04:19:33.567Z,3.03
2017-09-30T04:21:36.104Z,2.80
2017-09-30T04:23:38.539Z,3.00
2017-09-30T04:25:40.982Z,3.27
2017-09-30T04:27:43.512Z,3.03
2017-09-30T04:29:45.992Z,3.70
2017-09-30T04:31:48.441Z,2.90
2017-09-30T04:33:50.903Z,3.03
2017-09-30T04:35:53.404Z,3.00
2017-09-30T04:37:55.836Z,3.50
2017-09-30T04:39:58.345Z,3.50
2017-09-30T04:42:00.788Z,3.07
2017-09-30T04:44:03.228Z,2.83
2017-09-30T04:46:05.688Z,3.40
2017-09-30T04:48:08.120Z,3.27
2017-09-30T04:50:10.560Z,3.30
2017-09-30T04:52:13.065Z,3.03
2017-09-30T04:54:15.509Z,3.70
2017-09-30T04:56:17.939Z,2.80
2017-09-30T04:58:20.410Z,2.87
2017-09-30T05:00:22.844Z,3.10
2017-09-30T05:02:25.315Z,3.10
2017-09-30T05:04:27.973Z,2.57
2017-09-30T05:06:30.458Z,3.60
2017-09-30T05:08:32.989Z,2.60
2017-09-30T05:10:35.449Z,2.67
2017-09-30T05:12:37.888Z,2.80
2017-09-30T05:14:40.327Z,3.20
2017-09-30T05:16:43.095Z,3.37
2017-09-30T05:18:45.537Z,2.87
2017-09-30T05:20:47.976Z,2.90
2017-09-30T05:22:50.436Z,3.13
2017-09-30T05:24:52.909Z,2.77
2017-09-30T05:26:55.363Z,3.10
2017-09-30T05:28:57.880Z,3.30
2017-09-30T05:31:00.321Z,3.20
2017-09-30T05:33:02.769Z,3.47
2017-09-30T05:35:05.249Z,3.50
2017-09-30T05:37:07.688Z,3.17
2017-09-30T05:39:10.175Z,2.90
2017-09-30T05:41:12.652Z,3.37
2017-09-30T05:43:15.086Z,3.30
2017-09-30T05:45:17.530Z,2.50
2017-09-30T05:47:20.012Z,3.10
2017-09-30T05:49:22.449Z,3.00
2017-09-30T05:51:24.941Z,2.93
2017-09-30T05:53:27.479Z,2.70
2017-09-30T05:55:29.913Z,2.77
2017-09-30T05:57:32.421Z,3.37
2017-09-30T05:59:34.891Z,3.50
2017-09-30T06:01:37.335Z,2.87
2017-09-30T06:03:39.772Z,2.80
2017-09-30T06:05:42.255Z,2.83
2017-09-30T06:07:44.725Z,2.97
2017-09-30T06:09:47.183Z,3.07
2017-09-30T06:11:49.724Z,2.70
2017-09-30T06:13:52.170Z,3.00
2017-09-30T06:15:54.612Z,3.10
2017-09-30T06:17:57.417Z,2.90
2017-09-30T06:19:59.862Z,2.93
2017-09-30T06:22:02.297Z,2.30
2017-09-30T06:24:04.767Z,2.90
2017-09-30T06:26:07.205Z,2.90
2017-09-30T06:28:09.653Z,2.87
2017-09-30T06:30:12.192Z,3.70
2017-09-30T06:32:14.622Z,3.57
2017-09-30T06:34:17.077Z,2.50
2017-09-30T06:36:19.586Z,3.47
2017-09-30T06:38:22.024Z,2.47
2017-09-30T06:40:24.457Z,2.73
2017-09-30T06:42:26.936Z,2.60
2017-09-30T06:44:29.364Z,3.10
2017-09-30T06:46:31.841Z,2.40
2017-09-30T06:48:34.301Z,3.07
2017-09-30T06:50:36.740Z,2.53
2017-09-30T06:52:39.233Z,2.57
2017-09-30T06:54:41.695Z,2.93
2017-09-30T06:56:44.149Z,2.70
2017-09-30T06:58:46.622Z,2.97
2017-09-30T07:00:49.104Z,3.10
2017-09-30T07:02:51.584Z,2.47
2017-09-30T07:04:54.016Z,3.67
2017-09-30T07:06:56.478Z,2.83
2017-09-30T07:08:58.967Z,2.53
2017-09-30T07:11:01.438Z,3.47
2017-09-30T07:13:03.934Z,3.00
2017-09-30T07:15:06.373Z,2.80
2017-09-30T07:17:08.968Z,3.03
2017-09-30T07:19:11.720Z,2.80
2017-09-30T07:21:14.152Z,3.30
2017-09-30T07:23:16.597Z,2.63
2017-09-30T07:25:19.067Z,2.80
2017-09-30T07:27:21.502Z,2.90
2017-09-30T07:29:23.948Z,3.00
2017-09-30T07:31:26.420Z,2.93
2017-09-30T07:33:28.931Z,2.77
2017-09-30T07:35:31.368Z,2.90
2017-09-30T07:37:33.838Z,2.77
2017-09-30T07:39:36.329Z,3.00
2017-09-30T07:41:38.772Z,2.70
2017-09-30T07:43:41.337Z,3.00
2017-09-30T07:45:43.779Z,2.50
2017-09-30T07:47:46.231Z,2.50
2017-09-30T07:49:48.696Z,2.70
2017-09-30T07:51:51.148Z,2.87
2017-09-30T07:53:53.620Z,2.90
2017-09-30T07:55:56.092Z,2.73
2017-09-30T07:57:58.554Z,2.70
2017-09-30T08:00:01.000Z,2.90
2017-09-30T08:02:03.500Z,3.40
2017-09-30T08:04:05.945Z,3.40
2017-09-30T08:06:08.428Z,3.77
2017-09-30T08:08:10.886Z,3.07
2017-09-30T08:10:13.379Z,2.80
2017-09-30T08:12:15.868Z,3.07
2017-09-30T08:14:18.327Z,3.50
2017-09-30T08:16:20.802Z,2.73
2017-09-30T08:18:23.242Z,3.17
2017-09-30T08:20:26.203Z,3.73
2017-09-30T08:22:28.719Z,3.97
2017-09-30T08:24:31.156Z,3.80
2017-09-30T08:26:33.618Z,2.80
2017-09-30T08:28:36.060Z,2.60
2017-09-30T08:30:38.500Z,3.10
2017-09-30T08:32:40.953Z,3.00
2017-09-30T08:34:43.398Z,3.40
2017-09-30T08:36:45.866Z,3.10
2017-09-30T08:38:48.442Z,3.50
2017-09-30T08:40:50.908Z,3.27
2017-09-30T08:42:53.346Z,3.23
2017-09-30T08:44:55.821Z,3.00
2017-09-30T08:46:58.372Z,3.10
2017-09-30T08:49:00.945Z,3.73
2017-09-30T08:51:03.402Z,3.17
2017-09-30T08:53:05.859Z,3.37
2017-09-30T08:55:08.332Z,3.60
2017-09-30T08:57:10.818Z,4.03
2017-09-30T08:59:13.266Z,3.33
2017-09-30T09:01:15.742Z,3.70
2017-09-30T09:03:18.208Z,3.40
2017-09-30T09:05:20.672Z,4.27
2017-09-30T09:07:23.168Z,3.80
2017-09-30T09:09:25.621Z,3.87
2017-09-30T09:11:28.112Z,3.50
2017-09-30T09:13:30.557Z,5.03
2017-09-30T09:15:33.012Z,3.50
2017-09-30T09:17:35.480Z,3.83
2017-09-30T09:19:37.997Z,3.80
2017-09-30T09:21:40.673Z,4.07
2017-09-30T09:23:43.124Z,4.53
2017-09-30T09:25:45.603Z,3.33
2017-09-30T09:27:48.064Z,4.10
2017-09-30T09:29:50.609Z,3.30
2017-09-30T09:31:53.056Z,3.17
2017-09-30T09:33:55.517Z,3.87
2017-09-30T09:35:57.968Z,4.00
2017-09-30T09:38:00.441Z,3.90
2017-09-30T09:40:02.920Z,4.00
2017-09-30T09:42:05.367Z,3.77
2017-09-30T09:44:07.827Z,3.83
2017-09-30T09:46:10.302Z,3.83
2017-09-30T09:48:12.787Z,4.30
2017-09-30T09:50:15.249Z,4.50
2017-09-30T09:52:17.744Z,4.17
2017-09-30T09:54:20.200Z,4.43
2017-09-30T09:56:22.675Z,3.70
2017-09-30T09:58:25.136Z,3.90
2017-09-30T10:00:27.594Z,4.27
2017-09-30T10:02:30.071Z,3.87
2017-09-30T10:04:32.632Z,4.03
2017-09-30T10:06:35.186Z,4.60
2017-09-30T10:08:37.625Z,4.13
2017-09-30T10:10:40.162Z,3.80
2017-09-30T10:12:42.591Z,3.90
2017-09-30T10:14:45.033Z,4.30
2017-09-30T10:16:47.572Z,4.43
2017-09-30T10:18:50.008Z,4.40
2017-09-30T10:20:52.479Z,4.10
2017-09-30T10:22:55.284Z,3.67
2017-09-30T10:24:57.769Z,4.13
2017-09-30T10:27:00.204Z,3.40
2017-09-30T10:29:02.713Z,3.43
2017-09-30T10:31:05.149Z,4.10
2017-09-30T10:33:07.595Z,3.60
2017-09-30T10:35:10.102Z,3.27
2017-09-30T10:37:12.540Z,3.80
2017-09-30T10:39:15.040Z,4.13
2017-09-30T10:41:17.500Z,3.03
2017-09-30T10:43:19.933Z,2.90
2017-09-30T10:45:22.380Z,3.03
2017-09-30T10:47:24.848Z,3.83
2017-09-30T10:49:27.458Z,3.57
2017-09-30T10:51:29.891Z,3.80
2017-09-30T10:53:32.379Z,3.33
2017-09-30T10:55:34.900Z,3.50
2017-09-30T10:57:37.341Z,3.57
2017-09-30T10:59:39.843Z,3.30
2017-09-30T11:01:42.313Z,3.53
2017-09-30T11:03:44.751Z,3.00
2017-09-30T11:05:47.240Z,3.07
2017-09-30T11:07:49.744Z,3.27
2017-09-30T11:09:52.201Z,3.53
2017-09-30T11:11:54.710Z,3.60
2017-09-30T11:13:57.149Z,3.40
2017-09-30T11:15:59.616Z,3.23
2017-09-30T11:18:02.127Z,3.70
2017-09-30T11:20:04.557Z,3.70
2017-09-30T11:22:07.025Z,4.10
2017-09-30T11:24:09.785Z,3.40
2017-09-30T11:26:12.224Z,3.10
2017-09-30T11:28:14.707Z,3.77
2017-09-30T11:30:17.184Z,3.77
2017-09-30T11:32:19.612Z,3.63
2017-09-30T11:34:22.044Z,4.00
2017-09-30T11:36:24.714Z,3.97
2017-09-30T11:38:27.153Z,3.90
2017-09-30T11:40:29.657Z,3.40
2017-09-30T11:42:32.116Z,4.57
2017-09-30T11:44:34.600Z,3.40
2017-09-30T11:46:37.077Z,3.60
2017-09-30T11:48:39.572Z,3.43
2017-09-30T11:50:42.115Z,3.83
2017-09-30T11:52:44.549Z,4.10
2017-09-30T11:54:47.016Z,3.00
2017-09-30T11:56:49.451Z,3.60
2017-09-30T11:58:51.892Z,3.70
2017-09-30T12:00:54.400Z,3.40
2017-09-30T12:02:56.834Z,2.80
2017-09-30T12:04:59.466Z,3.53
2017-09-30T12:07:01.952Z,3.97
2017-09-30T12:09:04.384Z,3.30
2017-09-30T12:11:06.920Z,3.07
2017-09-30T12:13:09.392Z,3.67
2017-09-30T12:15:11.832Z,3.00
2017-09-30T12:17:14.268Z,3.83
2017-09-30T12:19:16.724Z,3.17
2017-09-30T12:21:19.165Z,3.10
2017-09-30T12:23:21.592Z,3.80
2017-09-30T12:25:24.213Z,3.70
2017-09-30T12:27:26.661Z,4.00
2017-09-30T12:29:29.104Z,3.80
2017-09-30T12:31:31.704Z,3.43
2017-09-30T12:33:34.140Z,3.30
2017-09-30T12:35:36.580Z,3.17
2017-09-30T12:37:39.052Z,3.30
2017-09-30T12:39:41.500Z,3.87
2017-09-30T12:41:43.931Z,3.93
2017-09-30T12:43:46.385Z,3.60
2017-09-30T12:45:48.866Z,3.50
2017-09-30T12:47:51.297Z,3.23
2017-09-30T12:49:53.849Z,3.40
2017-09-30T12:51:56.277Z,3.43
2017-09-30T12:53:58.725Z,4.00
2017-09-30T12:56:01.186Z,3.67
2017-09-30T12:58:03.636Z,3.50
2017-09-30T13:00:06.074Z,3.23
2017-09-30T13:02:08.536Z,3.53
2017-09-30T13:04:10.996Z,3.30
2017-09-30T13:06:13.450Z,3.00
2017-09-30T13:08:15.905Z,3.20
2017-09-30T13:10:18.356Z,3.27
2017-09-30T13:12:20.881Z,3.73
2017-09-30T13:14:23.333Z,3.03
2017-09-30T13:16:25.785Z,4.20
2017-09-30T13:18:28.220Z,3.70
2017-09-30T13:20:30.812Z,3.83
2017-09-30T13:22:33.264Z,3.67
2017-09-30T13:24:35.700Z,3.57
2017-09-30T13:26:38.480Z,2.97
2017-09-30T13:28:40.977Z,3.30
2017-09-30T13:30:43.420Z,3.47
2017-09-30T13:32:45.902Z,3.23
2017-09-30T13:34:48.340Z,3.40
2017-09-30T13:36:50.869Z,2.97
2017-09-30T13:38:53.321Z,3.60
2017-09-30T13:40:55.811Z,3.20
2017-09-30T13:42:58.249Z,3.23
2017-09-30T13:45:00.744Z,3.53
2017-09-30T13:47:03.181Z,3.10
2017-09-30T13:49:05.624Z,3.03
2017-09-30T13:51:08.105Z,2.67
2017-09-30T13:53:10.587Z,3.30
2017-09-30T13:55:13.022Z,3.60
2017-09-30T13:57:15.512Z,3.03
2017-09-30T13:59:18.036Z,3.40
2017-09-30T14:01:20.472Z,2.90
2017-09-30T14:03:22.985Z,3.50
2017-09-30T14:05:25.424Z,3.40
2017-09-30T14:07:27.878Z,2.93
2017-09-30T14:09:30.351Z,3.40
2017-09-30T14:11:32.781Z,2.87
2017-09-30T14:13:35.246Z,2.40
2017-09-30T14:15:37.772Z,2.40
2017-09-30T14:17:41.110Z,3.23
2017-09-30T14:19:43.553Z,3.77
2017-09-30T14:21:46.148Z,3.20
2017-09-30T14:23:48.586Z,3.20
2017-09-30T14:25:51.078Z,2.90
2017-09-30T14:27:53.844Z,3.73
2017-09-30T14:29:56.279Z,3.10
2017-09-30T14:31:58.724Z,3.80
2017-09-30T14:34:01.264Z,3.27
2017-09-30T14:36:03.706Z,3.50
2017-09-30T14:38:06.148Z,3.90
2017-09-30T14:40:08.605Z,3.20
2017-09-30T14:42:11.038Z,3.33
2017-09-30T14:44:13.494Z,2.90
2017-09-30T14:46:15.980Z,3.30
2017-09-30T14:48:18.422Z,2.77
2017-09-30T14:50:20.862Z,3.00
2017-09-30T14:52:23.329Z,3.00
2017-09-30T14:54:25.857Z,3.20
2017-09-30T14:56:28.337Z,2.90
2017-09-30T14:58:30.890Z,2.50
2017-09-30T15:00:33.330Z,3.57
2017-09-30T15:02:35.809Z,2.53
2017-09-30T15:04:38.329Z,2.73
2017-09-30T15:06:40.772Z,2.40
2017-09-30T15:08:43.221Z,2.73
2017-09-30T15:10:45.785Z,2.67
2017-09-30T15:12:48.300Z,3.17
2017-09-30T15:14:50.732Z,2.70
2017-09-30T15:16:53.205Z,2.50
2017-09-30T15:18:55.640Z,3.27
2017-09-30T15:20:58.077Z,2.63
2017-09-30T15:23:00.537Z,2.60
2017-09-30T15:25:03.036Z,2.90
2017-09-30T15:27:05.505Z,2.83
2017-09-30T15:29:08.550Z,2.53
2017-09-30T15:31:10.998Z,2.47
2017-09-30T15:33:13.475Z,2.17
2017-09-30T15:35:16.042Z,2.43
2017-09-30T15:37:18.486Z,2.70
2017-09-30T15:39:20.931Z,3.80
2017-09-30T15:41:23.400Z,2.33
2017-09-30T15:43:25.841Z,2.43
2017-09-30T15:45:28.276Z,2.80
2017-09-30T15:47:30.807Z,2.60
2017-09-30T15:49:33.282Z,2.07
2017-09-30T15:51:35.730Z,2.53
2017-09-30T15:53:38.203Z,3.10
2017-09-30T15:55:40.629Z,2.70
2017-09-30T15:57:43.158Z,2.40
2017-09-30T15:59:45.675Z,2.20
2017-09-30T16:01:48.133Z,2.10
2017-09-30T16:03:50.571Z,3.03
2017-09-30T16:05:53.052Z,2.57
2017-09-30T16:07:55.689Z,2.60
2017-09-30T16:09:58.158Z,2.60
2017-09-30T16:12:00.612Z,2.40
2017-09-30T16:14:03.057Z,2.30
2017-09-30T16:16:05.499Z,2.30
2017-09-30T16:18:08.006Z,2.33
2017-09-30T16:20:10.500Z,3.20
2017-09-30T16:22:12.959Z,2.30
2017-09-30T16:24:15.407Z,1.93
2017-09-30T16:26:17.854Z,2.47
2017-09-30T16:28:20.280Z,2.80
2017-09-30T16:30:23.023Z,3.20
2017-09-30T16:32:25.471Z,2.10
2017-09-30T16:34:27.920Z,3.23
2017-09-30T16:36:30.391Z,2.60
2017-09-30T16:38:32.830Z,2.97
2017-09-30T16:40:35.291Z,2.70
2017-09-30T16:42:37.804Z,1.80
2017-09-30T16:44:40.280Z,2.30
2017-09-30T16:46:42.717Z,2.13
2017-09-30T16:48:45.202Z,2.37
2017-09-30T16:50:47.641Z,2.20
2017-09-30T16:52:50.085Z,2.37
2017-09-30T16:54:52.593Z,2.60
2017-09-30T16:56:55.957Z,2.60
2017-09-30T16:58:58.512Z,2.47
2017-09-30T17:01:01.231Z,2.47
2017-09-30T17:03:03.678Z,2.30
2017-09-30T17:05:06.112Z,2.50
2017-09-30T17:07:08.570Z,3.43
2017-09-30T17:09:11.060Z,2.23
2017-09-30T17:11:13.561Z,2.23
2017-09-30T17:13:16.049Z,2.13
2017-09-30T17:15:18.568Z,2.70
2017-09-30T17:17:21.012Z,2.47
2017-09-30T17:19:23.482Z,2.47
2017-09-30T17:21:25.989Z,2.40
2017-09-30T17:23:28.440Z,3.10
2017-09-30T17:25:31.008Z,2.40
2017-09-30T17:27:33.468Z,2.00
2017-09-30T17:29:35.916Z,2.10
2017-09-30T17:31:38.629Z,2.30
2017-09-30T17:33:41.066Z,2.40
2017-09-30T17:35:43.630Z,2.93
2017-09-30T17:37:46.440Z,2.30
2017-09-30T17:39:48.907Z,1.87
2017-09-30T17:41:51.360Z,2.67
2017-09-30T17:43:53.838Z,2.40
2017-09-30T17:45:56.328Z,2.10
2017-09-30T17:47:58.770Z,3.07
2017-09-30T17:50:01.280Z,2.60
2017-09-30T17:52:03.734Z,3.13
2017-09-30T17:54:06.212Z,2.63
2017-09-30T17:56:08.671Z,3.03
2017-09-30T17:58:11.112Z,2.63
2017-09-30T18:00:13.567Z,2.37
2017-09-30T18:02:16.132Z,2.80
2017-09-30T18:04:18.652Z,2.50
2017-09-30T18:06:21.097Z,2.63
2017-09-30T18:08:23.580Z,2.40
2017-09-30T18:10:26.032Z,2.60
2017-09-30T18:12:28.482Z,2.37
2017-09-30T18:14:30.951Z,3.60
2017-09-30T18:16:33.389Z,3.33
2017-09-30T18:18:35.886Z,2.70
2017-09-30T18:20:38.340Z,3.60
2017-09-30T18:22:40.775Z,2.70
2017-09-30T18:24:43.263Z,2.60
2017-09-30T18:26:45.733Z,2.27
2017-09-30T18:28:48.169Z,2.93
2017-09-30T18:30:50.609Z,2.57
2017-09-30T18:32:53.220Z,3.03
2017-09-30T18:34:55.664Z,2.43
2017-09-30T18:36:58.107Z,2.23
2017-09-30T18:39:00.652Z,3.30
2017-09-30T18:41:03.285Z,2.80
2017-09-30T18:43:06.043Z,2.70
2017-09-30T18:45:08.580Z,2.63
2017-09-30T18:47:12.065Z,2.43
2017-09-30T18:49:15.057Z,2.20
2017-09-30T18:51:17.625Z,2.80
2017-09-30T18:53:20.103Z,2.53
2017-09-30T18:55:22.553Z,2.90
2017-09-30T18:57:25.022Z,2.70
2017-09-30T18:59:27.782Z,3.30
2017-09-30T19:01:31.192Z,2.90
2017-09-30T19:03:33.977Z,2.93
2017-09-30T19:05:36.430Z,2.90
2017-09-30T19:07:38.875Z,2.80
2017-09-30T19:09:41.657Z,2.40
2017-09-30T19:11:44.116Z,2.73
2017-09-30T19:13:46.638Z,3.13
2017-09-30T19:15:49.112Z,3.00
2017-09-30T19:17:51.560Z,3.67
2017-09-30T19:19:54.003Z,3.00
2017-09-30T19:21:56.523Z,3.07
2017-09-30T19:23:58.957Z,2.87
2017-09-30T19:26:01.457Z,2.90
2017-09-30T19:28:03.934Z,3.07
2017-09-30T19:30:06.672Z,2.47
2017-09-30T19:32:09.108Z,2.80
2017-09-30T19:34:11.657Z,2.90
2017-09-30T19:36:14.099Z,3.50
2017-09-30T19:38:16.560Z,2.67
2017-09-30T19:40:19.013Z,2.63
2017-09-30T19:42:21.460Z,2.57
2017-09-30T19:44:23.891Z,3.30
2017-09-30T19:46:26.381Z,2.83
2017-09-30T19:48:28.818Z,2.87
2017-09-30T19:50:31.305Z,3.10
2017-09-30T19:52:33.778Z,2.50
2017-09-30T19:54:36.243Z,2.77
2017-09-30T19:56:38.698Z,3.60
2017-09-30T19:58:41.274Z,3.13
2017-09-30T20:00:43.720Z,3.23
2017-09-30T20:02:46.163Z,3.03
2017-09-30T20:04:48.629Z,3.10
2017-09-30T20:06:51.075Z,2.97
2017-09-30T20:08:53.520Z,2.50
2017-09-30T20:10:56.001Z,2.90
2017-09-30T20:12:58.481Z,2.23
2017-09-30T20:15:00.925Z,2.83
2017-09-30T20:17:03.382Z,2.63
2017-09-30T20:19:05.819Z,2.50
2017-09-30T20:21:08.259Z,3.30
2017-09-30T20:23:10.741Z,3.20
2017-09-30T20:25:13.181Z,2.77
2017-09-30T20:27:15.623Z,3.07
2017-09-30T20:29:18.090Z,3.07
2017-09-30T20:31:20.619Z,3.03
2017-09-30T20:33:23.102Z,3.13
2017-09-30T20:35:25.839Z,3.73
2017-09-30T20:37:28.297Z,2.50
2017-09-30T20:39:30.780Z,3.37
2017-09-30T20:41:33.244Z,2.77
2017-09-30T20:43:35.778Z,3.63
2017-09-30T20:45:38.224Z,3.07
2017-09-30T20:47:40.705Z,2.63
2017-09-30T20:49:43.165Z,4.03
2017-09-30T20:51:45.624Z,2.70
2017-09-30T20:53:48.084Z,3.63
2017-09-30T20:55:50.564Z,3.10
2017-09-30T20:57:53.021Z,2.73
2017-09-30T20:59:55.518Z,3.50
2017-09-30T21:01:57.977Z,3.23
2017-09-30T21:04:00.421Z,2.80
2017-09-30T21:06:02.881Z,3.07
2017-09-30T21:08:05.324Z,3.20
2017-09-30T21:10:07.852Z,3.00
2017-09-30T21:12:10.341Z,3.10
2017-09-30T21:14:12.788Z,3.40
2017-09-30T21:16:15.229Z,3.00
2017-09-30T21:18:17.732Z,3.00
2017-09-30T21:20:20.200Z,3.17
2017-09-30T21:22:22.644Z,3.57
2017-09-30T21:24:25.184Z,4.00
2017-09-30T21:26:27.620Z,3.90
2017-09-30T21:28:30.087Z,3.00
2017-09-30T21:30:32.583Z,2.60
2017-09-30T21:32:35.026Z,3.20
2017-09-30T21:34:37.468Z,2.80
2017-09-30T21:36:40.210Z,3.77
2017-09-30T21:38:42.648Z,3.50
2017-09-30T21:40:45.113Z,3.70
2017-09-30T21:42:47.579Z,3.33
2017-09-30T21:44:50.055Z,3.20
2017-09-30T21:46:52.511Z,3.90
2017-09-30T21:48:55.049Z,4.10
2017-09-30T21:50:57.552Z,3.93
2017-09-30T21:52:59.986Z,3.27
2017-09-30T21:55:02.483Z,3.13
2017-09-30T21:57:04.932Z,3.30
2017-09-30T21:59:07.445Z,3.90
2017-09-30T22:01:10.013Z,3.50
2017-09-30T22:03:12.452Z,3.93
2017-09-30T22:05:14.898Z,3.70
2017-09-30T22:07:17.421Z,3.80
2017-09-30T22:09:19.851Z,3.57
2017-09-30T22:11:22.295Z,3.77
2017-09-30T22:13:24.768Z,3.67
2017-09-30T22:15:27.204Z,5.57
2017-09-30T22:17:29.676Z,3.23
2017-09-30T22:19:32.150Z,3.70
2017-09-30T22:21:34.584Z,3.90
2017-09-30T22:23:37.036Z,3.60
2017-09-30T22:25:39.498Z,4.67
2017-09-30T22:27:41.930Z,3.33
2017-09-30T22:29:44.370Z,4.00
2017-09-30T22:31:46.837Z,4.40
2017-09-30T22:33:49.273Z,3.63
2017-09-30T22:35:51.715Z,3.87
2017-09-30T22:37:54.468Z,4.10
2017-09-30T22:39:56.913Z,4.37
2017-09-30T22:41:59.420Z,3.90
2017-09-30T22:44:01.876Z,3.60
2017-09-30T22:46:04.352Z,4.07
2017-09-30T22:48:06.782Z,3.63
2017-09-30T22:50:09.300Z,3.90
2017-09-30T22:52:11.737Z,3.70
2017-09-30T22:54:14.176Z,4.53
2017-09-30T22:56:16.640Z,3.87
2017-09-30T22:58:19.081Z,4.10
2017-09-30T23:00:21.516Z,3.70
2017-09-30T23:02:24.034Z,3.60
2017-09-30T23:04:26.531Z,3.30
2017-09-30T23:06:28.960Z,3.87
2017-09-30T23:08:31.417Z,3.40
2017-09-30T23:10:33.869Z,3.57
2017-09-30T23:12:36.324Z,3.83
2017-09-30T23:14:39.036Z,3.60
2017-09-30T23:16:41.512Z,3.40
2017-09-30T23:18:43.960Z,3.70
2017-09-30T23:20:46.430Z,3.40
2017-09-30T23:22:48.881Z,3.57
2017-09-30T23:24:51.351Z,3.60
2017-09-30T23:26:53.804Z,3.80
2017-09-30T23:28:56.332Z,4.63
2017-09-30T23:30:58.766Z,4.40
2017-09-30T23:33:01.243Z,3.43
2017-09-30T23:35:03.681Z,3.90
2017-09-30T23:37:06.151Z,4.40
2017-09-30T23:39:08.929Z,4.03
2017-09-30T23:41:11.370Z,3.60
2017-09-30T23:43:13.835Z,3.50
2017-09-30T23:45:16.396Z,3.63
2017-09-30T23:47:18.842Z,5.03
2017-09-30T23:49:21.289Z,4.00
2017-09-30T23:51:23.768Z,3.80
2017-09-30T23:53:26.212Z,3.40
2017-09-30T23:55:28.648Z,4.17
2017-09-30T23:57:31.127Z,3.73
2017-09-30T23:59:33.612Z,3.67
